sensor_id;sensor_type;location;lat;lon;timestamp;P1;durP1;ratioP1;P2;durP2;ratioP2
61393;SDS011;48555;50.952;-0.120;2023-11-22T00:02:15;8.25;;;2.75;;
61393;SDS011;48555;50.952;-0.120;2023-11-22T00:04:40;5.90;;;2.40;;
61393;SDS011;48555;50.952;-0.120;2023-11-22T00:07:05;9.43;;;2.75;;
61393;SDS011;48555;50.952;-0.120;2023-11-22T00:09:31;6.38;;;2.47;;
61393;SDS011;48555;50.952;-0.120;2023-11-22T00:11:57;7.25;;;2.83;;
61393;SDS011;48555;50.952;-0.120;2023-11-22T00:14:25;8.73;;;3.00;;
61393;SDS011;48555;50.952;-0.120;2023-11-22T00:16:51;7.43;;;2.90;;
61393;SDS011;48555;50.952;-0.120;2023-11-22T00:19:16;9.70;;;2.88;;
61393;SDS011;48555;50.952;-0.120;2023-11-22T00:21:43;9.63;;;2.47;;
61393;SDS011;48555;50.952;-0.120;2023-11-22T00:24:09;7.68;;;2.80;;
61393;SDS011;48555;50.952;-0.120;2023-11-22T00:26:34;7.30;;;2.15;;
61393;SDS011;48555;50.952;-0.120;2023-11-22T00:29:00;6.00;;;2.58;;
61393;SDS011;48555;50.952;-0.120;2023-11-22T00:31:25;7.63;;;2.47;;
61393;SDS011;48555;50.952;-0.120;2023-11-22T00:33:50;8.48;;;2.42;;
61393;SDS011;48555;50.952;-0.120;2023-11-22T00:36:16;9.35;;;3.00;;
61393;SDS011;48555;50.952;-0.120;2023-11-22T00:38:41;7.68;;;2.47;;
61393;SDS011;48555;50.952;-0.120;2023-11-22T00:41:07;6.60;;;2.42;;
61393;SDS011;48555;50.952;-0.120;2023-11-22T00:43:33;6.50;;;2.38;;
61393;SDS011;48555;50.952;-0.120;2023-11-22T00:45:58;8.35;;;2.55;;
61393;SDS011;48555;50.952;-0.120;2023-11-22T00:48:24;8.88;;;2.60;;
61393;SDS011;48555;50.952;-0.120;2023-11-22T00:50:49;6.15;;;2.10;;
61393;SDS011;48555;50.952;-0.120;2023-11-22T00:53:15;5.28;;;2.22;;
61393;SDS011;48555;50.952;-0.120;2023-11-22T00:55:42;8.52;;;2.20;;
61393;SDS011;48555;50.952;-0.120;2023-11-22T00:58:07;10.13;;;2.58;;
61393;SDS011;48555;50.952;-0.120;2023-11-22T01:00:33;5.18;;;2.22;;
61393;SDS011;48555;50.952;-0.120;2023-11-22T01:02:58;7.30;;;2.17;;
61393;SDS011;48555;50.952;-0.120;2023-11-22T01:05:23;8.75;;;2.30;;
61393;SDS011;48555;50.952;-0.120;2023-11-22T01:07:49;7.13;;;1.98;;
61393;SDS011;48555;50.952;-0.120;2023-11-22T01:10:15;4.72;;;2.22;;
61393;SDS011;48555;50.952;-0.120;2023-11-22T01:12:40;5.53;;;2.15;;
61393;SDS011;48555;50.952;-0.120;2023-11-22T01:15:09;4.57;;;2.00;;
61393;SDS011;48555;50.952;-0.120;2023-11-22T01:17:34;5.20;;;1.80;;
61393;SDS011;48555;50.952;-0.120;2023-11-22T01:20:00;4.10;;;1.90;;
61393;SDS011;48555;50.952;-0.120;2023-11-22T01:22:26;4.18;;;1.85;;
61393;SDS011;48555;50.952;-0.120;2023-11-22T01:24:52;6.63;;;2.00;;
61393;SDS011;48555;50.952;-0.120;2023-11-22T01:27:17;6.88;;;2.20;;
61393;SDS011;48555;50.952;-0.120;2023-11-22T01:29:43;5.70;;;2.10;;
61393;SDS011;48555;50.952;-0.120;2023-11-22T01:32:08;5.72;;;1.88;;
61393;SDS011;48555;50.952;-0.120;2023-11-22T01:34:36;6.68;;;2.20;;
61393;SDS011;48555;50.952;-0.120;2023-11-22T01:37:02;5.97;;;2.40;;
61393;SDS011;48555;50.952;-0.120;2023-11-22T01:39:28;6.90;;;2.28;;
61393;SDS011;48555;50.952;-0.120;2023-11-22T01:41:53;4.38;;;1.77;;
61393;SDS011;48555;50.952;-0.120;2023-11-22T01:44:19;9.50;;;2.40;;
61393;SDS011;48555;50.952;-0.120;2023-11-22T01:46:44;4.97;;;2.20;;
61393;SDS011;48555;50.952;-0.120;2023-11-22T01:49:10;5.80;;;2.22;;
61393;SDS011;48555;50.952;-0.120;2023-11-22T01:51:39;6.40;;;2.67;;
61393;SDS011;48555;50.952;-0.120;2023-11-22T01:54:06;5.47;;;2.20;;
61393;SDS011;48555;50.952;-0.120;2023-11-22T01:56:33;7.07;;;2.00;;
61393;SDS011;48555;50.952;-0.120;2023-11-22T01:59:02;4.65;;;2.30;;
61393;SDS011;48555;50.952;-0.120;2023-11-22T02:01:29;7.93;;;2.47;;
61393;SDS011;48555;50.952;-0.120;2023-11-22T02:03:55;6.43;;;2.28;;
61393;SDS011;48555;50.952;-0.120;2023-11-22T02:06:21;6.13;;;2.85;;
61393;SDS011;48555;50.952;-0.120;2023-11-22T02:08:47;4.35;;;2.00;;
61393;SDS011;48555;50.952;-0.120;2023-11-22T02:11:12;7.45;;;2.33;;
61393;SDS011;48555;50.952;-0.120;2023-11-22T02:13:38;5.93;;;1.85;;
61393;SDS011;48555;50.952;-0.120;2023-11-22T02:16:03;6.88;;;2.10;;
61393;SDS011;48555;50.952;-0.120;2023-11-22T02:18:29;7.18;;;2.25;;
61393;SDS011;48555;50.952;-0.120;2023-11-22T02:20:56;5.50;;;2.33;;
61393;SDS011;48555;50.952;-0.120;2023-11-22T02:23:21;6.55;;;2.20;;
61393;SDS011;48555;50.952;-0.120;2023-11-22T02:25:47;7.53;;;2.72;;
61393;SDS011;48555;50.952;-0.120;2023-11-22T02:28:12;7.20;;;2.65;;
61393;SDS011;48555;50.952;-0.120;2023-11-22T02:30:38;9.15;;;2.53;;
61393;SDS011;48555;50.952;-0.120;2023-11-22T02:33:04;5.90;;;2.50;;
61393;SDS011;48555;50.952;-0.120;2023-11-22T02:35:32;5.63;;;2.25;;
61393;SDS011;48555;50.952;-0.120;2023-11-22T02:37:58;7.07;;;2.75;;
61393;SDS011;48555;50.952;-0.120;2023-11-22T02:40:26;5.35;;;2.00;;
61393;SDS011;48555;50.952;-0.120;2023-11-22T02:42:53;5.55;;;2.25;;
61393;SDS011;48555;50.952;-0.120;2023-11-22T02:45:21;5.47;;;2.17;;
61393;SDS011;48555;50.952;-0.120;2023-11-22T02:47:48;5.40;;;2.15;;
61393;SDS011;48555;50.952;-0.120;2023-11-22T02:50:15;5.65;;;2.35;;
61393;SDS011;48555;50.952;-0.120;2023-11-22T02:52:40;6.60;;;2.35;;
61393;SDS011;48555;50.952;-0.120;2023-11-22T02:55:07;4.72;;;2.42;;
61393;SDS011;48555;50.952;-0.120;2023-11-22T02:57:34;7.22;;;2.90;;
61393;SDS011;48555;50.952;-0.120;2023-11-22T03:00:01;5.82;;;2.45;;
61393;SDS011;48555;50.952;-0.120;2023-11-22T03:02:29;4.53;;;2.20;;
61393;SDS011;48555;50.952;-0.120;2023-11-22T03:04:54;7.22;;;2.58;;
61393;SDS011;48555;50.952;-0.120;2023-11-22T03:07:19;6.10;;;2.38;;
61393;SDS011;48555;50.952;-0.120;2023-11-22T03:09:45;5.22;;;2.60;;
61393;SDS011;48555;50.952;-0.120;2023-11-22T03:12:11;6.35;;;2.30;;
61393;SDS011;48555;50.952;-0.120;2023-11-22T03:14:38;9.52;;;2.95;;
61393;SDS011;48555;50.952;-0.120;2023-11-22T03:17:04;5.43;;;2.30;;
61393;SDS011;48555;50.952;-0.120;2023-11-22T03:19:29;5.53;;;2.58;;
61393;SDS011;48555;50.952;-0.120;2023-11-22T03:21:54;6.75;;;2.35;;
61393;SDS011;48555;50.952;-0.120;2023-11-22T03:24:21;6.47;;;2.60;;
61393;SDS011;48555;50.952;-0.120;2023-11-22T03:26:46;6.30;;;2.45;;
61393;SDS011;48555;50.952;-0.120;2023-11-22T03:29:13;6.85;;;2.55;;
61393;SDS011;48555;50.952;-0.120;2023-11-22T03:31:41;8.48;;;2.35;;
61393;SDS011;48555;50.952;-0.120;2023-11-22T03:34:07;6.20;;;2.33;;
61393;SDS011;48555;50.952;-0.120;2023-11-22T03:36:32;5.50;;;2.78;;
61393;SDS011;48555;50.952;-0.120;2023-11-22T03:38:58;6.60;;;2.42;;
61393;SDS011;48555;50.952;-0.120;2023-11-22T03:41:23;7.00;;;2.72;;
61393;SDS011;48555;50.952;-0.120;2023-11-22T03:43:48;4.63;;;2.05;;
61393;SDS011;48555;50.952;-0.120;2023-11-22T03:46:14;7.20;;;2.50;;
61393;SDS011;48555;50.952;-0.120;2023-11-22T03:48:39;6.65;;;2.42;;
61393;SDS011;48555;50.952;-0.120;2023-11-22T03:51:05;7.97;;;2.80;;
61393;SDS011;48555;50.952;-0.120;2023-11-22T03:53:30;5.50;;;2.30;;
61393;SDS011;48555;50.952;-0.120;2023-11-22T03:55:57;7.30;;;2.65;;
61393;SDS011;48555;50.952;-0.120;2023-11-22T03:58:22;8.20;;;2.78;;
61393;SDS011;48555;50.952;-0.120;2023-11-22T04:00:48;5.63;;;2.55;;
61393;SDS011;48555;50.952;-0.120;2023-11-22T04:03:13;5.18;;;2.30;;
61393;SDS011;48555;50.952;-0.120;2023-11-22T04:05:38;5.63;;;2.50;;
61393;SDS011;48555;50.952;-0.120;2023-11-22T04:08:04;8.45;;;3.08;;
61393;SDS011;48555;50.952;-0.120;2023-11-22T04:10:29;7.18;;;2.88;;
61393;SDS011;48555;50.952;-0.120;2023-11-22T04:12:55;5.95;;;2.63;;
61393;SDS011;48555;50.952;-0.120;2023-11-22T04:15:22;8.32;;;2.97;;
61393;SDS011;48555;50.952;-0.120;2023-11-22T04:17:47;7.30;;;2.90;;
61393;SDS011;48555;50.952;-0.120;2023-11-22T04:20:12;6.25;;;3.10;;
61393;SDS011;48555;50.952;-0.120;2023-11-22T04:22:43;7.82;;;3.90;;
61393;SDS011;48555;50.952;-0.120;2023-11-22T04:25:12;8.30;;;3.15;;
61393;SDS011;48555;50.952;-0.120;2023-11-22T04:27:40;9.15;;;3.03;;
61393;SDS011;48555;50.952;-0.120;2023-11-22T04:30:07;8.32;;;3.45;;
61393;SDS011;48555;50.952;-0.120;2023-11-22T04:32:34;7.43;;;3.30;;
61393;SDS011;48555;50.952;-0.120;2023-11-22T04:35:01;7.97;;;3.47;;
61393;SDS011;48555;50.952;-0.120;2023-11-22T04:37:28;7.75;;;3.40;;
61393;SDS011;48555;50.952;-0.120;2023-11-22T04:39:56;7.28;;;3.72;;
61393;SDS011;48555;50.952;-0.120;2023-11-22T04:42:22;8.85;;;4.70;;
61393;SDS011;48555;50.952;-0.120;2023-11-22T04:44:47;10.73;;;5.28;;
61393;SDS011;48555;50.952;-0.120;2023-11-22T04:47:12;9.77;;;4.78;;
61393;SDS011;48555;50.952;-0.120;2023-11-22T04:49:38;11.40;;;5.25;;
61393;SDS011;48555;50.952;-0.120;2023-11-22T04:52:03;11.73;;;5.05;;
61393;SDS011;48555;50.952;-0.120;2023-11-22T04:54:29;9.48;;;4.72;;
61393;SDS011;48555;50.952;-0.120;2023-11-22T04:56:54;7.82;;;4.70;;
61393;SDS011;48555;50.952;-0.120;2023-11-22T04:59:19;9.25;;;4.05;;
61393;SDS011;48555;50.952;-0.120;2023-11-22T05:01:45;7.97;;;4.05;;
61393;SDS011;48555;50.952;-0.120;2023-11-22T05:04:10;9.38;;;4.30;;
61393;SDS011;48555;50.952;-0.120;2023-11-22T05:06:35;8.30;;;4.28;;
61393;SDS011;48555;50.952;-0.120;2023-11-22T05:09:01;7.40;;;4.80;;
61393;SDS011;48555;50.952;-0.120;2023-11-22T05:11:27;9.05;;;4.07;;
61393;SDS011;48555;50.952;-0.120;2023-11-22T05:13:53;7.40;;;3.95;;
61393;SDS011;48555;50.952;-0.120;2023-11-22T05:16:18;8.02;;;3.90;;
61393;SDS011;48555;50.952;-0.120;2023-11-22T05:18:43;8.93;;;3.22;;
61393;SDS011;48555;50.952;-0.120;2023-11-22T05:21:09;6.35;;;3.03;;
61393;SDS011;48555;50.952;-0.120;2023-11-22T05:23:34;8.30;;;3.30;;
61393;SDS011;48555;50.952;-0.120;2023-11-22T05:26:02;8.68;;;3.42;;
61393;SDS011;48555;50.952;-0.120;2023-11-22T05:28:29;8.55;;;3.53;;
61393;SDS011;48555;50.952;-0.120;2023-11-22T05:30:55;7.85;;;3.35;;
61393;SDS011;48555;50.952;-0.120;2023-11-22T05:33:20;8.57;;;3.15;;
61393;SDS011;48555;50.952;-0.120;2023-11-22T05:35:45;11.02;;;3.55;;
61393;SDS011;48555;50.952;-0.120;2023-11-22T05:38:11;7.05;;;3.22;;
61393;SDS011;48555;50.952;-0.120;2023-11-22T05:40:37;6.13;;;2.88;;
61393;SDS011;48555;50.952;-0.120;2023-11-22T05:43:03;9.15;;;3.40;;
61393;SDS011;48555;50.952;-0.120;2023-11-22T05:45:29;6.75;;;3.03;;
61393;SDS011;48555;50.952;-0.120;2023-11-22T05:47:54;4.88;;;2.47;;
61393;SDS011;48555;50.952;-0.120;2023-11-22T05:50:20;5.82;;;2.88;;
61393;SDS011;48555;50.952;-0.120;2023-11-22T05:52:45;6.47;;;2.75;;
61393;SDS011;48555;50.952;-0.120;2023-11-22T05:55:10;8.32;;;2.85;;
61393;SDS011;48555;50.952;-0.120;2023-11-22T05:57:39;7.80;;;2.70;;
61393;SDS011;48555;50.952;-0.120;2023-11-22T06:00:07;7.35;;;3.35;;
61393;SDS011;48555;50.952;-0.120;2023-11-22T06:02:33;7.25;;;2.70;;
61393;SDS011;48555;50.952;-0.120;2023-11-22T06:04:58;6.78;;;2.50;;
61393;SDS011;48555;50.952;-0.120;2023-11-22T06:07:24;6.15;;;2.80;;
61393;SDS011;48555;50.952;-0.120;2023-11-22T06:09:49;5.38;;;2.33;;
61393;SDS011;48555;50.952;-0.120;2023-11-22T06:12:14;7.53;;;3.03;;
61393;SDS011;48555;50.952;-0.120;2023-11-22T06:14:40;7.43;;;2.95;;
61393;SDS011;48555;50.952;-0.120;2023-11-22T06:17:05;8.55;;;3.10;;
61393;SDS011;48555;50.952;-0.120;2023-11-22T06:19:30;6.88;;;2.97;;
61393;SDS011;48555;50.952;-0.120;2023-11-22T06:21:56;6.75;;;2.95;;
61393;SDS011;48555;50.952;-0.120;2023-11-22T06:24:21;7.93;;;3.25;;
61393;SDS011;48555;50.952;-0.120;2023-11-22T06:26:46;6.57;;;3.38;;
61393;SDS011;48555;50.952;-0.120;2023-11-22T06:29:12;6.60;;;2.90;;
61393;SDS011;48555;50.952;-0.120;2023-11-22T06:31:38;5.07;;;2.80;;
61393;SDS011;48555;50.952;-0.120;2023-11-22T06:34:03;9.13;;;3.13;;
61393;SDS011;48555;50.952;-0.120;2023-11-22T06:36:29;6.00;;;3.10;;
61393;SDS011;48555;50.952;-0.120;2023-11-22T06:38:54;7.78;;;3.50;;
61393;SDS011;48555;50.952;-0.120;2023-11-22T06:41:20;6.82;;;3.13;;
61393;SDS011;48555;50.952;-0.120;2023-11-22T06:43:46;7.65;;;2.95;;
61393;SDS011;48555;50.952;-0.120;2023-11-22T06:46:15;6.30;;;3.00;;
61393;SDS011;48555;50.952;-0.120;2023-11-22T06:48:41;6.97;;;2.97;;
61393;SDS011;48555;50.952;-0.120;2023-11-22T06:51:09;6.45;;;3.08;;
61393;SDS011;48555;50.952;-0.120;2023-11-22T06:53:34;6.70;;;3.35;;
61393;SDS011;48555;50.952;-0.120;2023-11-22T06:56:00;6.53;;;3.40;;
61393;SDS011;48555;50.952;-0.120;2023-11-22T06:58:26;6.82;;;3.45;;
61393;SDS011;48555;50.952;-0.120;2023-11-22T07:00:51;8.40;;;3.60;;
61393;SDS011;48555;50.952;-0.120;2023-11-22T07:03:17;7.68;;;3.33;;
61393;SDS011;48555;50.952;-0.120;2023-11-22T07:05:42;8.35;;;3.00;;
61393;SDS011;48555;50.952;-0.120;2023-11-22T07:08:08;7.00;;;3.05;;
61393;SDS011;48555;50.952;-0.120;2023-11-22T07:10:33;8.00;;;3.55;;
61393;SDS011;48555;50.952;-0.120;2023-11-22T07:12:59;6.97;;;2.95;;
61393;SDS011;48555;50.952;-0.120;2023-11-22T07:15:26;7.38;;;3.25;;
61393;SDS011;48555;50.952;-0.120;2023-11-22T07:17:52;7.88;;;2.92;;
61393;SDS011;48555;50.952;-0.120;2023-11-22T07:20:17;6.78;;;3.15;;
61393;SDS011;48555;50.952;-0.120;2023-11-22T07:22:42;7.60;;;3.22;;
61393;SDS011;48555;50.952;-0.120;2023-11-22T07:25:08;7.15;;;3.13;;
61393;SDS011;48555;50.952;-0.120;2023-11-22T07:27:43;6.40;;;3.22;;
61393;SDS011;48555;50.952;-0.120;2023-11-22T07:30:09;8.70;;;3.10;;
61393;SDS011;48555;50.952;-0.120;2023-11-22T07:32:38;6.38;;;3.10;;
61393;SDS011;48555;50.952;-0.120;2023-11-22T07:35:04;6.07;;;3.15;;
61393;SDS011;48555;50.952;-0.120;2023-11-22T07:37:30;8.18;;;3.40;;
61393;SDS011;48555;50.952;-0.120;2023-11-22T07:39:56;7.32;;;3.50;;
61393;SDS011;48555;50.952;-0.120;2023-11-22T07:42:22;11.77;;;3.63;;
61393;SDS011;48555;50.952;-0.120;2023-11-22T07:44:47;6.07;;;3.17;;
61393;SDS011;48555;50.952;-0.120;2023-11-22T07:47:13;7.55;;;3.42;;
61393;SDS011;48555;50.952;-0.120;2023-11-22T07:49:39;7.80;;;3.38;;
61393;SDS011;48555;50.952;-0.120;2023-11-22T07:52:04;8.02;;;3.50;;
61393;SDS011;48555;50.952;-0.120;2023-11-22T07:54:30;6.45;;;3.05;;
61393;SDS011;48555;50.952;-0.120;2023-11-22T07:56:56;6.32;;;3.10;;
61393;SDS011;48555;50.952;-0.120;2023-11-22T07:59:22;8.55;;;3.33;;
61393;SDS011;48555;50.952;-0.120;2023-11-22T08:01:47;7.60;;;3.97;;
61393;SDS011;48555;50.952;-0.120;2023-11-22T08:04:14;9.95;;;4.22;;
61393;SDS011;48555;50.952;-0.120;2023-11-22T08:06:39;9.80;;;4.10;;
61393;SDS011;48555;50.952;-0.120;2023-11-22T08:09:05;9.48;;;3.85;;
61393;SDS011;48555;50.952;-0.120;2023-11-22T08:11:33;10.55;;;5.53;;
61393;SDS011;48555;50.952;-0.120;2023-11-22T08:13:58;18.42;;;10.52;;
61393;SDS011;48555;50.952;-0.120;2023-11-22T08:16:27;20.75;;;12.95;;
61393;SDS011;48555;50.952;-0.120;2023-11-22T08:18:52;22.85;;;12.60;;
61393;SDS011;48555;50.952;-0.120;2023-11-22T08:21:18;18.50;;;12.27;;
61393;SDS011;48555;50.952;-0.120;2023-11-22T08:23:43;16.13;;;7.63;;
61393;SDS011;48555;50.952;-0.120;2023-11-22T08:26:11;10.57;;;5.15;;
61393;SDS011;48555;50.952;-0.120;2023-11-22T08:28:37;8.70;;;4.40;;
61393;SDS011;48555;50.952;-0.120;2023-11-22T08:31:03;12.20;;;4.38;;
61393;SDS011;48555;50.952;-0.120;2023-11-22T08:36:00;10.55;;;4.38;;
61393;SDS011;48555;50.952;-0.120;2023-11-22T08:38:26;8.73;;;4.20;;
61393;SDS011;48555;50.952;-0.120;2023-11-22T08:40:51;8.07;;;4.10;;
61393;SDS011;48555;50.952;-0.120;2023-11-22T08:43:17;10.18;;;4.60;;
61393;SDS011;48555;50.952;-0.120;2023-11-22T08:45:47;9.30;;;4.15;;
61393;SDS011;48555;50.952;-0.120;2023-11-22T08:48:13;8.77;;;4.13;;
61393;SDS011;48555;50.952;-0.120;2023-11-22T08:50:40;7.50;;;3.80;;
61393;SDS011;48555;50.952;-0.120;2023-11-22T08:53:05;8.57;;;3.70;;
61393;SDS011;48555;50.952;-0.120;2023-11-22T08:55:30;9.48;;;4.40;;
61393;SDS011;48555;50.952;-0.120;2023-11-22T08:57:58;8.18;;;3.95;;
61393;SDS011;48555;50.952;-0.120;2023-11-22T09:00:24;9.45;;;4.15;;
61393;SDS011;48555;50.952;-0.120;2023-11-22T09:02:53;8.05;;;3.90;;
61393;SDS011;48555;50.952;-0.120;2023-11-22T09:05:19;8.65;;;3.42;;
61393;SDS011;48555;50.952;-0.120;2023-11-22T09:07:46;7.45;;;3.97;;
61393;SDS011;48555;50.952;-0.120;2023-11-22T09:10:12;7.90;;;3.45;;
61393;SDS011;48555;50.952;-0.120;2023-11-22T09:12:42;10.60;;;4.20;;
61393;SDS011;48555;50.952;-0.120;2023-11-22T09:15:09;8.32;;;3.78;;
61393;SDS011;48555;50.952;-0.120;2023-11-22T09:17:36;6.95;;;3.80;;
61393;SDS011;48555;50.952;-0.120;2023-11-22T09:20:08;10.98;;;4.05;;
61393;SDS011;48555;50.952;-0.120;2023-11-22T09:22:36;10.50;;;3.75;;
61393;SDS011;48555;50.952;-0.120;2023-11-22T09:25:10;8.05;;;3.60;;
61393;SDS011;48555;50.952;-0.120;2023-11-22T09:27:36;10.75;;;3.75;;
61393;SDS011;48555;50.952;-0.120;2023-11-22T09:30:02;9.13;;;4.50;;
61393;SDS011;48555;50.952;-0.120;2023-11-22T09:32:29;8.45;;;4.13;;
61393;SDS011;48555;50.952;-0.120;2023-11-22T09:34:55;9.93;;;4.22;;
61393;SDS011;48555;50.952;-0.120;2023-11-22T09:37:23;9.43;;;4.22;;
61393;SDS011;48555;50.952;-0.120;2023-11-22T09:39:48;8.18;;;4.13;;
61393;SDS011;48555;50.952;-0.120;2023-11-22T09:42:15;9.88;;;4.90;;
61393;SDS011;48555;50.952;-0.120;2023-11-22T09:44:40;11.50;;;4.25;;
61393;SDS011;48555;50.952;-0.120;2023-11-22T09:47:06;10.10;;;4.43;;
61393;SDS011;48555;50.952;-0.120;2023-11-22T09:49:31;11.02;;;5.47;;
61393;SDS011;48555;50.952;-0.120;2023-11-22T09:52:01;9.63;;;4.28;;
61393;SDS011;48555;50.952;-0.120;2023-11-22T09:54:28;8.38;;;4.00;;
61393;SDS011;48555;50.952;-0.120;2023-11-22T09:56:56;12.15;;;4.72;;
61393;SDS011;48555;50.952;-0.120;2023-11-22T09:59:25;8.85;;;4.05;;
61393;SDS011;48555;50.952;-0.120;2023-11-22T10:01:53;8.10;;;3.67;;
61393;SDS011;48555;50.952;-0.120;2023-11-22T10:04:19;9.95;;;4.05;;
61393;SDS011;48555;50.952;-0.120;2023-11-22T10:06:45;9.85;;;4.10;;
61393;SDS011;48555;50.952;-0.120;2023-11-22T10:09:11;9.52;;;3.85;;
61393;SDS011;48555;50.952;-0.120;2023-11-22T10:11:39;6.53;;;3.50;;
61393;SDS011;48555;50.952;-0.120;2023-11-22T10:14:08;8.93;;;3.78;;
61393;SDS011;48555;50.952;-0.120;2023-11-22T10:16:34;7.40;;;3.85;;
61393;SDS011;48555;50.952;-0.120;2023-11-22T10:18:59;9.15;;;3.67;;
61393;SDS011;48555;50.952;-0.120;2023-11-22T10:21:25;10.15;;;3.30;;
61393;SDS011;48555;50.952;-0.120;2023-11-22T10:23:56;8.25;;;3.13;;
61393;SDS011;48555;50.952;-0.120;2023-11-22T10:26:25;8.68;;;3.35;;
61393;SDS011;48555;50.952;-0.120;2023-11-22T10:28:55;7.53;;;3.70;;
61393;SDS011;48555;50.952;-0.120;2023-11-22T10:31:21;10.48;;;3.75;;
61393;SDS011;48555;50.952;-0.120;2023-11-22T10:33:48;7.30;;;3.55;;
61393;SDS011;48555;50.952;-0.120;2023-11-22T10:36:14;5.63;;;3.00;;
61393;SDS011;48555;50.952;-0.120;2023-11-22T10:38:40;12.52;;;3.50;;
61393;SDS011;48555;50.952;-0.120;2023-11-22T10:41:08;7.40;;;3.13;;
61393;SDS011;48555;50.952;-0.120;2023-11-22T10:43:35;6.88;;;2.88;;
61393;SDS011;48555;50.952;-0.120;2023-11-22T10:46:03;7.97;;;3.60;;
61393;SDS011;48555;50.952;-0.120;2023-11-22T10:48:34;6.82;;;3.50;;
61393;SDS011;48555;50.952;-0.120;2023-11-22T10:51:02;5.85;;;2.75;;
61393;SDS011;48555;50.952;-0.120;2023-11-22T10:53:34;4.63;;;2.88;;
61393;SDS011;48555;50.952;-0.120;2023-11-22T10:58:37;6.63;;;2.65;;
61393;SDS011;48555;50.952;-0.120;2023-11-22T11:01:11;7.00;;;2.75;;
61393;SDS011;48555;50.952;-0.120;2023-11-22T11:03:37;11.32;;;2.97;;
61393;SDS011;48555;50.952;-0.120;2023-11-22T11:06:07;6.82;;;2.90;;
61393;SDS011;48555;50.952;-0.120;2023-11-22T11:08:36;7.05;;;2.55;;
61393;SDS011;48555;50.952;-0.120;2023-11-22T11:11:03;7.15;;;2.75;;
61393;SDS011;48555;50.952;-0.120;2023-11-22T11:13:31;6.72;;;2.58;;
61393;SDS011;48555;50.952;-0.120;2023-11-22T11:15:56;5.50;;;2.53;;
61393;SDS011;48555;50.952;-0.120;2023-11-22T11:18:22;7.28;;;2.88;;
61393;SDS011;48555;50.952;-0.120;2023-11-22T11:20:51;9.27;;;2.88;;
61393;SDS011;48555;50.952;-0.120;2023-11-22T11:23:22;5.50;;;2.25;;
61393;SDS011;48555;50.952;-0.120;2023-11-22T11:25:50;6.70;;;2.28;;
61393;SDS011;48555;50.952;-0.120;2023-11-22T11:28:17;6.53;;;2.30;;
61393;SDS011;48555;50.952;-0.120;2023-11-22T11:30:46;5.32;;;2.03;;
61393;SDS011;48555;50.952;-0.120;2023-11-22T11:33:53;8.80;;;2.78;;
61393;SDS011;48555;50.952;-0.120;2023-11-22T11:36:25;7.60;;;2.80;;
61393;SDS011;48555;50.952;-0.120;2023-11-22T11:38:57;4.50;;;2.20;;
61393;SDS011;48555;50.952;-0.120;2023-11-22T11:41:28;4.80;;;2.10;;
61393;SDS011;48555;50.952;-0.120;2023-11-22T11:43:57;6.35;;;2.17;;
61393;SDS011;48555;50.952;-0.120;2023-11-22T11:46:23;5.28;;;2.10;;
61393;SDS011;48555;50.952;-0.120;2023-11-22T11:48:50;7.25;;;2.10;;
61393;SDS011;48555;50.952;-0.120;2023-11-22T11:51:18;4.35;;;2.00;;
61393;SDS011;48555;50.952;-0.120;2023-11-22T11:53:44;7.57;;;2.13;;
61393;SDS011;48555;50.952;-0.120;2023-11-22T11:56:11;9.05;;;2.50;;
61393;SDS011;48555;50.952;-0.120;2023-11-22T11:58:37;5.15;;;1.98;;
61393;SDS011;48555;50.952;-0.120;2023-11-22T12:01:06;6.32;;;2.00;;
61393;SDS011;48555;50.952;-0.120;2023-11-22T12:03:32;4.78;;;1.67;;
61393;SDS011;48555;50.952;-0.120;2023-11-22T12:05:58;6.30;;;1.75;;
61393;SDS011;48555;50.952;-0.120;2023-11-22T12:08:24;4.57;;;1.67;;
61393;SDS011;48555;50.952;-0.120;2023-11-22T12:10:49;4.15;;;1.67;;
61393;SDS011;48555;50.952;-0.120;2023-11-22T12:13:16;3.58;;;1.35;;
61393;SDS011;48555;50.952;-0.120;2023-11-22T12:15:43;4.15;;;1.50;;
61393;SDS011;48555;50.952;-0.120;2023-11-22T12:18:09;5.03;;;1.45;;
61393;SDS011;48555;50.952;-0.120;2023-11-22T12:20:34;5.57;;;2.30;;
61393;SDS011;48555;50.952;-0.120;2023-11-22T12:23:00;4.35;;;2.05;;
61393;SDS011;48555;50.952;-0.120;2023-11-22T12:25:27;3.83;;;1.52;;
61393;SDS011;48555;50.952;-0.120;2023-11-22T12:27:56;4.65;;;1.92;;
61393;SDS011;48555;50.952;-0.120;2023-11-22T12:30:31;3.85;;;1.35;;
61393;SDS011;48555;50.952;-0.120;2023-11-22T12:33:01;3.60;;;1.65;;
61393;SDS011;48555;50.952;-0.120;2023-11-22T12:35:32;6.38;;;1.75;;
61393;SDS011;48555;50.952;-0.120;2023-11-22T12:37:59;4.80;;;1.77;;
61393;SDS011;48555;50.952;-0.120;2023-11-22T12:40:30;4.88;;;1.88;;
61393;SDS011;48555;50.952;-0.120;2023-11-22T12:42:57;5.05;;;1.50;;
61393;SDS011;48555;50.952;-0.120;2023-11-22T12:45:23;4.85;;;1.50;;
61393;SDS011;48555;50.952;-0.120;2023-11-22T12:47:50;6.13;;;1.70;;
61393;SDS011;48555;50.952;-0.120;2023-11-22T12:50:32;6.20;;;1.88;;
61393;SDS011;48555;50.952;-0.120;2023-11-22T12:53:13;5.93;;;1.75;;
61393;SDS011;48555;50.952;-0.120;2023-11-22T12:55:43;4.07;;;2.10;;
61393;SDS011;48555;50.952;-0.120;2023-11-22T12:58:13;5.80;;;1.83;;
61393;SDS011;48555;50.952;-0.120;2023-11-22T13:00:43;4.45;;;1.58;;
61393;SDS011;48555;50.952;-0.120;2023-11-22T13:03:10;3.53;;;1.60;;
61393;SDS011;48555;50.952;-0.120;2023-11-22T13:05:36;7.50;;;1.88;;
61393;SDS011;48555;50.952;-0.120;2023-11-22T13:08:02;5.18;;;2.00;;
61393;SDS011;48555;50.952;-0.120;2023-11-22T13:10:28;5.35;;;1.90;;
61393;SDS011;48555;50.952;-0.120;2023-11-22T13:12:54;5.75;;;2.03;;
61393;SDS011;48555;50.952;-0.120;2023-11-22T13:15:20;3.92;;;1.70;;
61393;SDS011;48555;50.952;-0.120;2023-11-22T13:17:51;8.30;;;1.98;;
61393;SDS011;48555;50.952;-0.120;2023-11-22T13:20:23;5.45;;;2.30;;
61393;SDS011;48555;50.952;-0.120;2023-11-22T13:22:50;5.53;;;2.05;;
61393;SDS011;48555;50.952;-0.120;2023-11-22T13:25:16;6.70;;;1.85;;
61393;SDS011;48555;50.952;-0.120;2023-11-22T13:27:47;6.50;;;2.08;;
61393;SDS011;48555;50.952;-0.120;2023-11-22T13:30:13;5.28;;;1.90;;
61393;SDS011;48555;50.952;-0.120;2023-11-22T13:32:39;7.20;;;1.90;;
61393;SDS011;48555;50.952;-0.120;2023-11-22T13:35:06;5.82;;;2.15;;
61393;SDS011;48555;50.952;-0.120;2023-11-22T13:37:39;6.32;;;2.10;;
61393;SDS011;48555;50.952;-0.120;2023-11-22T13:40:07;7.82;;;2.42;;
61393;SDS011;48555;50.952;-0.120;2023-11-22T13:42:38;8.73;;;2.55;;
61393;SDS011;48555;50.952;-0.120;2023-11-22T13:45:03;6.25;;;2.30;;
61393;SDS011;48555;50.952;-0.120;2023-11-22T13:47:30;5.68;;;2.30;;
61393;SDS011;48555;50.952;-0.120;2023-11-22T13:49:58;5.22;;;2.45;;
61393;SDS011;48555;50.952;-0.120;2023-11-22T13:52:23;5.20;;;2.40;;
61393;SDS011;48555;50.952;-0.120;2023-11-22T13:54:49;9.45;;;2.53;;
61393;SDS011;48555;50.952;-0.120;2023-11-22T13:57:16;6.53;;;2.30;;
61393;SDS011;48555;50.952;-0.120;2023-11-22T13:59:42;6.57;;;2.85;;
61393;SDS011;48555;50.952;-0.120;2023-11-22T14:02:07;6.43;;;2.60;;
61393;SDS011;48555;50.952;-0.120;2023-11-22T14:04:32;7.72;;;2.67;;
61393;SDS011;48555;50.952;-0.120;2023-11-22T14:06:59;8.20;;;2.58;;
61393;SDS011;48555;50.952;-0.120;2023-11-22T14:09:25;5.60;;;2.55;;
61393;SDS011;48555;50.952;-0.120;2023-11-22T14:11:51;5.32;;;2.25;;
61393;SDS011;48555;50.952;-0.120;2023-11-22T14:14:18;7.10;;;2.08;;
61393;SDS011;48555;50.952;-0.120;2023-11-22T14:16:44;6.00;;;2.38;;
61393;SDS011;48555;50.952;-0.120;2023-11-22T14:19:10;4.80;;;2.58;;
61393;SDS011;48555;50.952;-0.120;2023-11-22T14:21:36;5.78;;;2.20;;
61393;SDS011;48555;50.952;-0.120;2023-11-22T14:24:01;8.57;;;2.70;;
61393;SDS011;48555;50.952;-0.120;2023-11-22T14:26:27;6.15;;;2.50;;
61393;SDS011;48555;50.952;-0.120;2023-11-22T14:28:52;6.40;;;2.30;;
61393;SDS011;48555;50.952;-0.120;2023-11-22T14:31:17;5.78;;;2.40;;
61393;SDS011;48555;50.952;-0.120;2023-11-22T14:33:43;6.80;;;2.50;;
61393;SDS011;48555;50.952;-0.120;2023-11-22T14:36:08;7.65;;;2.20;;